»·PEaware :: JBU727 KGEG-KSEA

JBU727 :: KGEG-KSEA

FLIGHT INFORMATION

Flight Status: Arrived
Operator:
JetBlue Airways
More flights by this operator :: More flights under this callsign
Pilot: Anonymous 5323 (5323)
Aircraft: BOEING 727-200
(B722)
More flights by this aircraft type
Origin: KGEG Spokane Intl
United States
Destination: KSEA Seattle-Tacoma Intl
United States
More flights between these airports :: More routes between these airports
Route: GEG6 GEG GLASR1
File this flight plan on PilotEdge
Remarks:
Altitude:
(Current/Filed)
26,000ft
Speed:
(Current/Filed)
480kts
Departed: 14-Feb-21 09:07 AM
Arrived: 14-Feb-21 10:01 AM
Distance/Time
Traveled:
194nm/0:54
Distance/Time
To Go:
Arrived

Flight Plot

Page will automatically refresh every two minutes.

Flight plan parsing failed; only flown route is shown


Map Options




Map Legend


Flown Route
Filed Route
Departure Airport
Arrival Airport
Navaid (VOR, NDB)
Fix

Horizontal Profiles

Position Reports

Time Latitude Longitude Heading Altitude Ground
Speed
14-Feb-21 08:36 47.625853 -117.534363 232 2363ft 0kts
14-Feb-21 08:37 47.625853 -117.534363 232 2363ft 0kts
14-Feb-21 08:38 47.625853 -117.534363 232 2363ft 0kts
14-Feb-21 08:39 47.625853 -117.534363 232 2363ft 0kts
14-Feb-21 08:40 47.625853 -117.534363 232 2363ft 0kts
14-Feb-21 08:41 47.625853 -117.534363 232 2363ft 0kts
14-Feb-21 08:42 47.625853 -117.534363 232 2363ft 0kts
14-Feb-21 08:43 47.625853 -117.534363 232 2363ft 0kts
14-Feb-21 08:44 47.625853 -117.534363 232 2363ft 0kts
14-Feb-21 08:45 47.625853 -117.534363 232 2363ft 0kts
14-Feb-21 08:46 47.625853 -117.534363 232 2363ft 0kts
14-Feb-21 08:47 47.625853 -117.534363 232 2363ft 0kts
14-Feb-21 08:48 47.625853 -117.534363 232 2363ft 0kts
14-Feb-21 08:49 47.625853 -117.534363 232 2363ft 0kts
14-Feb-21 08:50 47.625853 -117.534363 232 2363ft 0kts
14-Feb-21 08:51 47.625999 -117.534082 223 2363ft 2kts
14-Feb-21 08:52 47.626340 -117.534098 137 2363ft 0kts
14-Feb-21 08:53 47.626381 -117.534156 134 2363ft 0kts
14-Feb-21 08:54 47.626381 -117.534156 134 2363ft 0kts
14-Feb-21 08:55 47.626381 -117.534156 134 2363ft 0kts
14-Feb-21 08:56 47.626381 -117.534156 134 2363ft 0kts
14-Feb-21 08:57 47.626381 -117.534156 134 2363ft 0kts
14-Feb-21 08:58 47.626381 -117.534156 134 2363ft 0kts
14-Feb-21 08:59 47.626381 -117.534156 134 2363ft 0kts
14-Feb-21 09:00 47.626381 -117.534156 134 2363ft 0kts
14-Feb-21 09:01 47.626160 -117.533847 136 2363ft 9kts
14-Feb-21 09:02 47.622888 -117.534834 225 2365ft 20kts
14-Feb-21 09:03 47.618265 -117.541792 224 2374ft 26kts
14-Feb-21 09:04 47.612691 -117.550172 226 2385ft 20kts
14-Feb-21 09:05 47.610947 -117.551098 136 2388ft 4kts
14-Feb-21 09:06 47.616650 -117.540187 44 2377ft 134kts
14-Feb-21 09:07 47.650101 -117.488667 44 4576ft 198kts
14-Feb-21 09:08 47.693989 -117.423907 43 7264ft 243kts
14-Feb-21 09:09 47.732610 -117.336340 95 9997ft 285kts
14-Feb-21 09:10 47.671368 -117.287963 214 12765ft 276kts
14-Feb-21 09:11 47.629832 -117.395101 253 14714ft 310kts
14-Feb-21 09:12 47.601260 -117.518146 254 17286ft 320kts
14-Feb-21 09:13 47.572197 -117.644820 254 19478ft 331kts
14-Feb-21 09:14 47.580849 -117.772841 281 21406ft 332kts
14-Feb-21 09:15 47.588109 -117.910696 281 23232ft 341kts
14-Feb-21 09:16 47.604128 -118.050650 281 24928ft 349kts
14-Feb-21 09:17 47.619174 -118.194784 280 26056ft 366kts
14-Feb-21 09:18 47.633822 -118.353139 279 26107ft 409kts
14-Feb-21 09:19 47.648626 -118.527917 279 26184ft 444kts
14-Feb-21 09:20 47.664011 -118.716035 278 26198ft 473kts
14-Feb-21 09:21 47.679640 -118.911875 278 26193ft 474kts
14-Feb-21 09:22 47.694515 -119.101863 278 26190ft 456kts
14-Feb-21 09:23 47.709394 -119.286379 279 26180ft 445kts
14-Feb-21 09:24 47.724404 -119.468164 279 26181ft 441kts
14-Feb-21 09:25 47.738873 -119.648254 279 26183ft 439kts
14-Feb-21 09:26 47.752538 -119.827696 278 26179ft 426kts
14-Feb-21 09:27 47.764625 -119.998096 278 25146ft 410kts
14-Feb-21 09:28 47.776982 -120.166376 278 24203ft 418kts
14-Feb-21 09:29 47.789756 -120.342795 278 24184ft 437kts
14-Feb-21 09:30 47.803394 -120.523638 279 24182ft 443kts
14-Feb-21 09:31 47.815045 -120.706523 274 24152ft 420kts
14-Feb-21 09:32 47.822549 -120.861719 277 22564ft 356kts
14-Feb-21 09:33 47.835656 -121.007142 279 20307ft 357kts
14-Feb-21 09:34 47.851246 -121.150461 277 18570ft 347kts
14-Feb-21 09:35 47.863207 -121.292607 273 16377ft 346kts
14-Feb-21 09:36 47.869038 -121.429086 271 13618ft 316kts
14-Feb-21 09:37 47.872940 -121.548761 271 12629ft 269kts
14-Feb-21 09:38 47.862915 -121.655918 249 12036ft 262kts
14-Feb-21 09:39 47.827771 -121.751556 234 12029ft 270kts
14-Feb-21 09:40 47.785182 -121.842006 237 12015ft 258kts
14-Feb-21 09:41 47.778958 -121.931868 276 11444ft 192kts
14-Feb-21 09:42 47.785552 -122.008593 276 9924ft 186kts
14-Feb-21 09:43 47.790409 -122.085577 276 7523ft 187kts
14-Feb-21 09:44 47.794167 -122.166081 276 6140ft 186kts
14-Feb-21 09:45 47.797629 -122.243535 276 6005ft 185kts
14-Feb-21 09:46 47.801336 -122.324097 276 6004ft 182kts
14-Feb-21 09:47 47.804593 -122.396023 276 5988ft 165kts
14-Feb-21 09:48 47.812555 -122.473149 316 6013ft 191kts
14-Feb-21 09:50 47.841777 -122.436338 91 6007ft 201kts
14-Feb-21 09:51 47.835608 -122.350838 121 5994ft 200kts
14-Feb-21 09:52 47.787409 -122.308941 173 5825ft 197kts
14-Feb-21 09:53 47.732102 -122.305723 178 5142ft 182kts
14-Feb-21 09:54 47.682299 -122.304884 180 4824ft 178kts
14-Feb-21 09:55 47.628487 -122.305805 181 3715ft 172kts
14-Feb-21 09:56 47.590394 -122.306851 180 2848ft 118kts
14-Feb-21 09:57 47.556551 -122.307144 179 2309ft 126kts
14-Feb-21 09:58 47.521919 -122.307302 179 1599ft 126kts
14-Feb-21 09:59 47.487323 -122.307572 178 930ft 124kts
14-Feb-21 10:00 47.454579 -122.307847 180 431ft 77kts
14-Feb-21 10:01 47.450144 -122.306681 67 416ft 0kts
14-Feb-21 10:02 47.448681 -122.306051 180 410ft 15kts

Navigation Log

Ident Type
Flight plan parsing failed, navigation log unavailable